createdAt,value
2022-07-31T00:01:29.536Z,92.92
2022-07-31T00:06:43.936Z,92.89
2022-07-31T00:11:49.856Z,93.10
2022-07-31T00:16:56.274Z,93.31
2022-07-31T00:22:02.077Z,93.48
2022-07-31T00:27:10.857Z,93.61
2022-07-31T00:32:16.868Z,93.69
2022-07-31T00:37:22.742Z,93.72
2022-07-31T00:42:28.855Z,93.88
2022-07-31T00:47:34.749Z,93.82
2022-07-31T00:52:41.588Z,93.85
2022-07-31T00:57:47.384Z,93.74
2022-07-31T01:02:53.288Z,93.65
2022-07-31T01:07:59.821Z,93.84
2022-07-31T01:13:10.584Z,94.11
2022-07-31T01:18:18.643Z,94.09
2022-07-31T01:23:57.120Z,93.92
2022-07-31T01:29:19.058Z,93.92
2022-07-31T01:34:34.095Z,93.92
2022-07-31T01:39:49.608Z,94.01
2022-07-31T01:45:00.754Z,93.92
2022-07-31T01:50:07.420Z,93.86
2022-07-31T01:55:15.909Z,93.64
2022-07-31T02:00:23.585Z,93.55
2022-07-31T02:05:43.040Z,93.94
2022-07-31T02:10:49.901Z,94.22
2022-07-31T02:15:58.116Z,94.45
2022-07-31T02:21:04.399Z,94.49
2022-07-31T02:26:11.442Z,94.60
2022-07-31T02:31:18.801Z,94.48
2022-07-31T02:36:27.646Z,94.80
2022-07-31T02:41:35.103Z,95.02
2022-07-31T02:46:44.746Z,95.46
2022-07-31T02:51:50.940Z,96.18
2022-07-31T02:56:58.494Z,96.75
2022-07-31T03:02:05.029Z,97.20
2022-07-31T03:07:12.964Z,97.38
2022-07-31T03:12:19.785Z,97.72
2022-07-31T03:17:40.911Z,97.68
2022-07-31T03:22:48.989Z,97.73
2022-07-31T03:27:56.179Z,98.10
2022-07-31T03:33:03.658Z,98.17
2022-07-31T03:38:40.819Z,98.18
2022-07-31T03:43:46.914Z,98.27
2022-07-31T03:48:55.817Z,98.53
2022-07-31T03:54:04.320Z,98.77
2022-07-31T03:59:36.638Z,98.82
2022-07-31T04:04:47.398Z,99.10
2022-07-31T04:09:54.035Z,99.38
2022-07-31T04:15:00.468Z,99.63
2022-07-31T04:20:08.370Z,99.92
2022-07-31T04:25:14.874Z,100.00
2022-07-31T04:30:47.013Z,100.00
2022-07-31T04:35:53.593Z,100.00
2022-07-31T04:40:59.413Z,100.00
2022-07-31T04:46:17.751Z,100.00
2022-07-31T04:51:25.085Z,100.00
2022-07-31T04:56:34.360Z,100.00
2022-07-31T05:01:42.021Z,100.00
2022-07-31T05:06:51.070Z,100.00
2022-07-31T05:11:57.537Z,100.00
2022-07-31T05:17:03.596Z,100.00
2022-07-31T05:22:27.492Z,100.00
2022-07-31T05:28:09.687Z,100.00
2022-07-31T05:33:16.384Z,100.00
2022-07-31T05:38:22.919Z,100.00
2022-07-31T05:43:48.940Z,100.00
2022-07-31T05:49:00.503Z,100.00
2022-07-31T05:54:07.160Z,100.00
2022-07-31T05:59:32.917Z,100.00
2022-07-31T06:04:38.991Z,100.00
2022-07-31T06:09:44.996Z,100.00
2022-07-31T06:14:55.410Z,100.00
2022-07-31T06:20:13.504Z,100.00
2022-07-31T06:25:19.482Z,100.00
2022-07-31T06:30:25.652Z,100.00
2022-07-31T06:35:32.109Z,100.00
2022-07-31T06:41:01.053Z,100.00
2022-07-31T06:46:16.438Z,100.00
2022-07-31T06:52:01.493Z,100.00
2022-07-31T06:57:11.700Z,100.00
2022-07-31T07:02:18.117Z,100.00
2022-07-31T07:07:24.140Z,100.00
2022-07-31T07:12:37.952Z,100.00
2022-07-31T07:17:43.913Z,100.00
2022-07-31T07:22:54.178Z,100.00
2022-07-31T07:28:29.330Z,100.00
2022-07-31T07:33:39.518Z,100.00
2022-07-31T07:38:55.622Z,100.00
2022-07-31T07:44:04.286Z,100.00
2022-07-31T07:49:10.279Z,100.00
2022-07-31T07:54:19.558Z,100.00
2022-07-31T07:59:44.177Z,100.00
2022-07-31T08:05:09.581Z,100.00
2022-07-31T08:10:19.186Z,100.00
2022-07-31T08:15:42.174Z,100.00
2022-07-31T08:21:14.437Z,100.00
2022-07-31T08:26:20.305Z,100.00
2022-07-31T08:31:27.428Z,100.00
2022-07-31T08:36:59.736Z,100.00
2022-07-31T08:42:25.910Z,100.00
2022-07-31T08:47:35.157Z,100.00
2022-07-31T08:52:49.463Z,100.00
2022-07-31T08:58:15.440Z,100.00
2022-07-31T09:03:21.668Z,100.00
2022-07-31T09:08:37.956Z,100.00
2022-07-31T09:14:02.801Z,100.00
2022-07-31T09:19:51.874Z,100.00
2022-07-31T09:25:08.773Z,99.77
2022-07-31T09:30:15.901Z,99.81
2022-07-31T09:35:48.412Z,99.52
2022-07-31T09:40:57.540Z,99.86
2022-07-31T09:46:06.097Z,99.81
2022-07-31T09:51:12.056Z,99.96
2022-07-31T09:56:18.314Z,100.00
2022-07-31T10:01:24.577Z,100.00
2022-07-31T10:06:34.578Z,100.00
2022-07-31T10:11:42.607Z,99.97
2022-07-31T10:16:55.087Z,99.72
2022-07-31T10:22:20.278Z,98.71
2022-07-31T10:27:28.382Z,98.41
2022-07-31T10:32:42.522Z,97.82
2022-07-31T10:38:21.173Z,96.95
2022-07-31T10:43:30.907Z,96.70
2022-07-31T10:48:57.962Z,96.74
2022-07-31T10:54:38.195Z,95.96
2022-07-31T11:00:12.989Z,95.15
2022-07-31T11:06:02.427Z,94.73
2022-07-31T11:11:35.720Z,93.97
2022-07-31T11:17:05.428Z,94.06
2022-07-31T11:22:42.991Z,94.20
2022-07-31T11:27:49.036Z,93.27
2022-07-31T11:32:57.942Z,93.04
2022-07-31T11:38:03.949Z,92.33
2022-07-31T11:43:25.562Z,90.88
2022-07-31T11:48:38.059Z,91.08
2022-07-31T11:53:51.168Z,90.91
2022-07-31T11:59:04.162Z,90.43
2022-07-31T12:04:11.714Z,91.01
2022-07-31T12:10:01.471Z,90.82
2022-07-31T12:14:44.899Z,90.29
2022-07-31T12:19:52.885Z,89.77
2022-07-31T12:25:06.056Z,90.19
2022-07-31T12:30:20.087Z,91.13
2022-07-31T12:35:55.917Z,89.85
2022-07-31T12:41:07.778Z,89.19
2022-07-31T12:46:17.222Z,88.99
2022-07-31T12:51:44.034Z,89.45
2022-07-31T12:56:51.745Z,90.11
2022-07-31T13:01:58.065Z,90.37
2022-07-31T13:07:04.697Z,91.15
2022-07-31T13:12:11.343Z,91.10
2022-07-31T13:17:17.257Z,91.26
2022-07-31T13:22:23.406Z,91.91
2022-07-31T13:27:29.260Z,91.43
2022-07-31T13:32:35.157Z,91.59
2022-07-31T13:37:41.006Z,91.79
2022-07-31T13:42:47.078Z,91.63
2022-07-31T13:47:55.940Z,91.59
2022-07-31T13:53:05.676Z,91.88
2022-07-31T13:58:11.638Z,91.85
2022-07-31T14:03:19.194Z,91.45
2022-07-31T14:08:33.495Z,91.75
2022-07-31T14:13:53.440Z,91.57
2022-07-31T14:18:59.462Z,91.11
2022-07-31T14:24:05.845Z,91.12
2022-07-31T14:29:11.624Z,91.47
2022-07-31T14:34:17.487Z,91.65
2022-07-31T14:39:23.394Z,91.17
2022-07-31T14:44:29.239Z,91.23
2022-07-31T14:50:08.353Z,91.30
2022-07-31T14:55:02.376Z,91.36
2022-07-31T15:00:13.956Z,91.23
2022-07-31T15:06:41.977Z,91.21
2022-07-31T15:10:45.797Z,91.65
2022-07-31T15:15:52.834Z,91.52
2022-07-31T15:21:00.858Z,92.03
2022-07-31T15:26:06.948Z,92.16
2022-07-31T15:31:13.233Z,92.47
2022-07-31T15:36:23.152Z,92.34
2022-07-31T15:41:29.002Z,92.78
2022-07-31T15:46:34.893Z,93.22
2022-07-31T15:51:40.715Z,93.05
2022-07-31T15:56:47.140Z,93.68
2022-07-31T16:01:53.392Z,93.70
2022-07-31T16:08:31.639Z,93.65
2022-07-31T16:12:50.838Z,93.59
2022-07-31T16:17:57.025Z,94.06
2022-07-31T16:23:03.224Z,94.05
2022-07-31T16:28:08.928Z,94.16
2022-07-31T16:33:14.763Z,94.11
2022-07-31T16:38:20.685Z,94.42
2022-07-31T16:43:49.126Z,94.37
2022-07-31T16:48:53.294Z,93.90
2022-07-31T16:54:14.642Z,94.05
2022-07-31T16:59:22.743Z,94.20
2022-07-31T17:04:29.059Z,93.97
2022-07-31T17:09:34.930Z,93.77
2022-07-31T17:14:51.083Z,94.34
2022-07-31T17:19:57.193Z,94.36
2022-07-31T17:25:03.073Z,94.28
2022-07-31T17:30:10.747Z,94.67
2022-07-31T17:35:16.872Z,94.71
2022-07-31T17:40:42.484Z,94.71
2022-07-31T17:45:59.418Z,94.62
2022-07-31T17:51:12.583Z,94.39
2022-07-31T17:56:18.944Z,94.71
2022-07-31T18:01:28.972Z,94.63
2022-07-31T18:06:35.402Z,94.76
2022-07-31T18:11:41.265Z,94.85
2022-07-31T18:16:47.083Z,94.92
2022-07-31T18:21:53.371Z,94.96
2022-07-31T18:26:59.563Z,95.02
2022-07-31T18:32:06.616Z,95.34
2022-07-31T18:37:12.913Z,95.14
2022-07-31T18:42:19.241Z,95.06
2022-07-31T18:47:25.442Z,95.38
2022-07-31T18:52:31.356Z,95.46
2022-07-31T18:57:37.593Z,95.22
2022-07-31T19:02:43.447Z,95.05
2022-07-31T19:07:49.779Z,94.77
2022-07-31T19:12:56.388Z,94.61
2022-07-31T19:18:02.439Z,94.81
2022-07-31T19:23:12.572Z,95.00
2022-07-31T19:28:18.757Z,94.78
2022-07-31T19:33:26.005Z,94.76
2022-07-31T19:38:33.084Z,94.83
2022-07-31T19:43:39.038Z,95.41
2022-07-31T19:48:46.509Z,95.88
2022-07-31T19:53:52.685Z,95.65
2022-07-31T19:58:59.158Z,95.57
2022-07-31T20:04:05.541Z,95.58
2022-07-31T20:09:11.912Z,95.74
2022-07-31T20:14:18.040Z,95.82
2022-07-31T20:19:23.943Z,95.45
2022-07-31T20:24:31.029Z,95.50
2022-07-31T20:29:37.523Z,95.43
2022-07-31T20:34:43.438Z,95.72
2022-07-31T20:39:49.374Z,95.95
2022-07-31T20:44:55.479Z,96.19
2022-07-31T20:50:01.620Z,96.20
2022-07-31T20:55:08.690Z,96.08
2022-07-31T21:00:18.338Z,96.23
2022-07-31T21:05:29.218Z,96.50
2022-07-31T21:10:34.230Z,96.24
2022-07-31T21:15:44.594Z,96.35
2022-07-31T21:20:53.773Z,96.29
2022-07-31T21:26:00.641Z,96.32
2022-07-31T21:31:07.535Z,96.41
2022-07-31T21:36:14.960Z,96.28
2022-07-31T21:41:23.091Z,96.47
2022-07-31T21:46:30.010Z,96.35
2022-07-31T21:51:36.556Z,96.44
2022-07-31T21:56:42.493Z,96.40
2022-07-31T22:01:57.801Z,96.80
2022-07-31T22:07:27.217Z,96.54
2022-07-31T22:12:34.126Z,96.44
2022-07-31T22:17:40.642Z,96.55
2022-07-31T22:22:47.703Z,96.56
2022-07-31T22:27:57.352Z,96.29
2022-07-31T22:33:04.944Z,96.53
2022-07-31T22:38:14.744Z,96.53
2022-07-31T22:44:10.391Z,96.28
2022-07-31T22:48:47.992Z,95.94
2022-07-31T22:53:56.630Z,96.15
2022-07-31T22:59:02.610Z,95.89
2022-07-31T23:04:08.918Z,96.32
2022-07-31T23:09:14.777Z,96.60
2022-07-31T23:14:20.773Z,96.56
2022-07-31T23:19:26.810Z,96.51
2022-07-31T23:24:32.845Z,96.58
2022-07-31T23:29:41.721Z,96.98
2022-07-31T23:34:48.077Z,96.82
2022-07-31T23:39:54.182Z,96.94
2022-07-31T23:45:00.420Z,96.84
2022-07-31T23:50:07.758Z,97.18
2022-07-31T23:55:13.718Z,96.94
